sensor_id;sensor_type;location;lat;lon;timestamp;temperature;humidity
65826;DHT22;52586;-43.152;172.732;2023-02-01T00:00:42;25.50;59.30
65826;DHT22;52586;-43.152;172.732;2023-02-01T00:03:12;25.60;59.30
65826;DHT22;52586;-43.152;172.732;2023-02-01T00:05:53;25.60;59.30
65826;DHT22;52586;-43.152;172.732;2023-02-01T00:08:24;25.60;59.20
65826;DHT22;52586;-43.152;172.732;2023-02-01T00:11:05;25.60;59.20
65826;DHT22;52586;-43.152;172.732;2023-02-01T00:13:37;25.60;59.10
65826;DHT22;52586;-43.152;172.732;2023-02-01T00:16:09;25.70;59.20
65826;DHT22;52586;-43.152;172.732;2023-02-01T00:18:44;25.70;59.20
65826;DHT22;52586;-43.152;172.732;2023-02-01T00:21:18;25.70;59.10
65826;DHT22;52586;-43.152;172.732;2023-02-01T00:23:49;25.70;59.00
65826;DHT22;52586;-43.152;172.732;2023-02-01T00:26:22;25.70;59.00
65826;DHT22;52586;-43.152;172.732;2023-02-01T00:28:54;25.70;58.90
65826;DHT22;52586;-43.152;172.732;2023-02-01T00:31:24;25.80;59.00
65826;DHT22;52586;-43.152;172.732;2023-02-01T00:33:55;25.80;58.90
65826;DHT22;52586;-43.152;172.732;2023-02-01T00:36:28;25.80;58.90
65826;DHT22;52586;-43.152;172.732;2023-02-01T00:38:59;25.80;58.90
65826;DHT22;52586;-43.152;172.732;2023-02-01T00:41:29;25.80;58.90
65826;DHT22;52586;-43.152;172.732;2023-02-01T00:44:00;25.80;58.90
65826;DHT22;52586;-43.152;172.732;2023-02-01T00:46:31;25.80;58.90
65826;DHT22;52586;-43.152;172.732;2023-02-01T00:49:01;25.80;58.90
65826;DHT22;52586;-43.152;172.732;2023-02-01T00:51:35;25.80;58.90
65826;DHT22;52586;-43.152;172.732;2023-02-01T00:54:05;25.80;58.90
65826;DHT22;52586;-43.152;172.732;2023-02-01T00:56:36;25.80;58.90
65826;DHT22;52586;-43.152;172.732;2023-02-01T00:59:09;25.80;58.90
65826;DHT22;52586;-43.152;172.732;2023-02-01T01:01:40;25.80;58.90
65826;DHT22;52586;-43.152;172.732;2023-02-01T01:04:11;25.80;59.10
65826;DHT22;52586;-43.152;172.732;2023-02-01T01:06:44;25.80;58.90
65826;DHT22;52586;-43.152;172.732;2023-02-01T01:09:14;25.90;59.00
65826;DHT22;52586;-43.152;172.732;2023-02-01T01:11:45;25.90;58.90
65826;DHT22;52586;-43.152;172.732;2023-02-01T01:14:16;25.90;58.90
65826;DHT22;52586;-43.152;172.732;2023-02-01T01:16:46;25.90;59.00
65826;DHT22;52586;-43.152;172.732;2023-02-01T01:19:18;25.90;59.00
65826;DHT22;52586;-43.152;172.732;2023-02-01T01:21:51;25.90;59.10
65826;DHT22;52586;-43.152;172.732;2023-02-01T01:24:21;25.90;59.10
65826;DHT22;52586;-43.152;172.732;2023-02-01T01:26:52;25.90;59.20
65826;DHT22;52586;-43.152;172.732;2023-02-01T01:29:22;25.90;59.20
65826;DHT22;52586;-43.152;172.732;2023-02-01T01:31:53;25.90;59.20
65826;DHT22;52586;-43.152;172.732;2023-02-01T01:34:24;25.90;59.20
65826;DHT22;52586;-43.152;172.732;2023-02-01T01:36:56;25.90;59.10
65826;DHT22;52586;-43.152;172.732;2023-02-01T01:39:27;25.90;59.10
65826;DHT22;52586;-43.152;172.732;2023-02-01T01:41:58;26.00;59.20
65826;DHT22;52586;-43.152;172.732;2023-02-01T01:44:59;26.00;59.20
65826;DHT22;52586;-43.152;172.732;2023-02-01T01:47:33;26.00;59.20
65826;DHT22;52586;-43.152;172.732;2023-02-01T01:50:07;26.00;59.30
65826;DHT22;52586;-43.152;172.732;2023-02-01T01:52:42;26.00;59.30
65826;DHT22;52586;-43.152;172.732;2023-02-01T01:55:16;26.00;59.40
65826;DHT22;52586;-43.152;172.732;2023-02-01T01:57:51;26.00;59.30
65826;DHT22;52586;-43.152;172.732;2023-02-01T02:00:23;26.00;59.40
65826;DHT22;52586;-43.152;172.732;2023-02-01T02:02:58;26.00;59.40
65826;DHT22;52586;-43.152;172.732;2023-02-01T02:05:31;26.00;59.50
65826;DHT22;52586;-43.152;172.732;2023-02-01T02:08:04;26.00;59.50
65826;DHT22;52586;-43.152;172.732;2023-02-01T02:10:35;26.00;59.60
65826;DHT22;52586;-43.152;172.732;2023-02-01T02:13:23;26.00;59.70
65826;DHT22;52586;-43.152;172.732;2023-02-01T02:16:02;26.00;59.70
65826;DHT22;52586;-43.152;172.732;2023-02-01T02:18:41;26.10;59.60
65826;DHT22;52586;-43.152;172.732;2023-02-01T02:21:18;26.10;59.60
65826;DHT22;52586;-43.152;172.732;2023-02-01T02:24:17;26.10;59.60
65826;DHT22;52586;-43.152;172.732;2023-02-01T02:27:10;26.10;59.70
65826;DHT22;52586;-43.152;172.732;2023-02-01T02:33:30;26.20;59.70
65826;DHT22;52586;-43.152;172.732;2023-02-01T02:36:09;26.10;59.60
65826;DHT22;52586;-43.152;172.732;2023-02-01T02:38:44;26.20;59.70
65826;DHT22;52586;-43.152;172.732;2023-02-01T02:41:20;26.20;59.80
65826;DHT22;52586;-43.152;172.732;2023-02-01T02:44:24;26.20;59.90
65826;DHT22;52586;-43.152;172.732;2023-02-01T02:47:19;26.20;59.80
65826;DHT22;52586;-43.152;172.732;2023-02-01T02:50:08;26.20;59.90
65826;DHT22;52586;-43.152;172.732;2023-02-01T02:53:00;26.20;59.90
65826;DHT22;52586;-43.152;172.732;2023-02-01T02:55:48;26.30;60.10
65826;DHT22;52586;-43.152;172.732;2023-02-01T02:58:40;26.30;60.50
65826;DHT22;52586;-43.152;172.732;2023-02-01T03:01:27;26.30;60.60
65826;DHT22;52586;-43.152;172.732;2023-02-01T03:04:14;26.30;60.80
65826;DHT22;52586;-43.152;172.732;2023-02-01T03:06:47;26.40;61.10
65826;DHT22;52586;-43.152;172.732;2023-02-01T03:09:21;26.40;61.00
65826;DHT22;52586;-43.152;172.732;2023-02-01T03:11:55;26.40;60.90
65826;DHT22;52586;-43.152;172.732;2023-02-01T03:14:44;26.40;60.60
65826;DHT22;52586;-43.152;172.732;2023-02-01T03:17:19;26.50;60.60
65826;DHT22;52586;-43.152;172.732;2023-02-01T03:19:53;26.50;60.50
65826;DHT22;52586;-43.152;172.732;2023-02-01T03:22:27;26.50;60.40
65826;DHT22;52586;-43.152;172.732;2023-02-01T03:25:04;26.50;60.40
65826;DHT22;52586;-43.152;172.732;2023-02-01T03:27:40;26.50;60.50
65826;DHT22;52586;-43.152;172.732;2023-02-01T03:30:14;26.50;60.50
65826;DHT22;52586;-43.152;172.732;2023-02-01T03:32:48;26.60;60.40
65826;DHT22;52586;-43.152;172.732;2023-02-01T03:35:32;26.60;60.40
65826;DHT22;52586;-43.152;172.732;2023-02-01T03:38:12;26.60;60.30
65826;DHT22;52586;-43.152;172.732;2023-02-01T03:40:46;26.60;60.20
65826;DHT22;52586;-43.152;172.732;2023-02-01T03:43:20;26.60;60.10
65826;DHT22;52586;-43.152;172.732;2023-02-01T03:45:54;26.70;60.00
65826;DHT22;52586;-43.152;172.732;2023-02-01T03:48:28;26.60;60.00
65826;DHT22;52586;-43.152;172.732;2023-02-01T03:51:01;26.60;59.90
65826;DHT22;52586;-43.152;172.732;2023-02-01T03:53:37;26.60;59.90
65826;DHT22;52586;-43.152;172.732;2023-02-01T03:56:10;26.60;59.80
65826;DHT22;52586;-43.152;172.732;2023-02-01T03:58:41;26.70;59.80
65826;DHT22;52586;-43.152;172.732;2023-02-01T04:01:27;26.70;59.80
65826;DHT22;52586;-43.152;172.732;2023-02-01T04:03:58;26.70;59.80
65826;DHT22;52586;-43.152;172.732;2023-02-01T04:06:29;26.70;59.80
65826;DHT22;52586;-43.152;172.732;2023-02-01T04:09:04;26.70;59.90
65826;DHT22;52586;-43.152;172.732;2023-02-01T04:11:35;26.70;59.80
65826;DHT22;52586;-43.152;172.732;2023-02-01T04:14:06;26.70;59.80
65826;DHT22;52586;-43.152;172.732;2023-02-01T04:16:37;26.70;59.80
65826;DHT22;52586;-43.152;172.732;2023-02-01T04:19:07;26.70;59.80
65826;DHT22;52586;-43.152;172.732;2023-02-01T04:21:38;26.80;59.90
65826;DHT22;52586;-43.152;172.732;2023-02-01T04:24:11;26.80;59.80
65826;DHT22;52586;-43.152;172.732;2023-02-01T04:26:41;26.80;59.80
65826;DHT22;52586;-43.152;172.732;2023-02-01T04:29:12;26.80;59.80
65826;DHT22;52586;-43.152;172.732;2023-02-01T04:31:43;26.80;59.70
65826;DHT22;52586;-43.152;172.732;2023-02-01T04:34:14;26.90;59.70
65826;DHT22;52586;-43.152;172.732;2023-02-01T04:36:45;26.90;59.70
65826;DHT22;52586;-43.152;172.732;2023-02-01T04:39:17;26.90;59.60
65826;DHT22;52586;-43.152;172.732;2023-02-01T04:41:48;26.90;59.60
65826;DHT22;52586;-43.152;172.732;2023-02-01T04:44:19;26.90;59.50
65826;DHT22;52586;-43.152;172.732;2023-02-01T04:46:50;27.00;59.60
65826;DHT22;52586;-43.152;172.732;2023-02-01T04:49:20;27.00;59.50
65826;DHT22;52586;-43.152;172.732;2023-02-01T04:51:53;27.00;59.40
65826;DHT22;52586;-43.152;172.732;2023-02-01T04:54:25;27.00;59.40
65826;DHT22;52586;-43.152;172.732;2023-02-01T04:56:56;27.00;59.30
65826;DHT22;52586;-43.152;172.732;2023-02-01T04:59:27;27.10;59.20
65826;DHT22;52586;-43.152;172.732;2023-02-01T05:01:58;27.10;59.10
65826;DHT22;52586;-43.152;172.732;2023-02-01T05:04:28;27.10;59.10
65826;DHT22;52586;-43.152;172.732;2023-02-01T05:06:59;27.20;59.10
65826;DHT22;52586;-43.152;172.732;2023-02-01T05:09:31;27.20;59.10
65826;DHT22;52586;-43.152;172.732;2023-02-01T05:12:02;27.20;59.00
65826;DHT22;52586;-43.152;172.732;2023-02-01T05:14:49;27.20;58.90
65826;DHT22;52586;-43.152;172.732;2023-02-01T05:17:19;27.20;58.70
65826;DHT22;52586;-43.152;172.732;2023-02-01T05:19:50;27.30;58.60
65826;DHT22;52586;-43.152;172.732;2023-02-01T05:22:21;27.30;58.70
65826;DHT22;52586;-43.152;172.732;2023-02-01T05:24:53;27.30;58.70
65826;DHT22;52586;-43.152;172.732;2023-02-01T05:27:24;27.30;58.60
65826;DHT22;52586;-43.152;172.732;2023-02-01T05:29:54;27.30;58.50
65826;DHT22;52586;-43.152;172.732;2023-02-01T05:32:25;27.40;58.50
65826;DHT22;52586;-43.152;172.732;2023-02-01T05:34:56;27.40;58.40
65826;DHT22;52586;-43.152;172.732;2023-02-01T05:37:27;27.40;58.40
65826;DHT22;52586;-43.152;172.732;2023-02-01T05:39:59;27.40;58.20
65826;DHT22;52586;-43.152;172.732;2023-02-01T05:42:30;27.50;58.20
65826;DHT22;52586;-43.152;172.732;2023-02-01T05:45:01;27.50;58.20
65826;DHT22;52586;-43.152;172.732;2023-02-01T05:47:32;27.50;58.10
65826;DHT22;52586;-43.152;172.732;2023-02-01T05:50:04;27.50;58.10
65826;DHT22;52586;-43.152;172.732;2023-02-01T05:52:35;27.50;58.10
65826;DHT22;52586;-43.152;172.732;2023-02-01T05:55:08;27.60;58.10
65826;DHT22;52586;-43.152;172.732;2023-02-01T05:57:39;27.50;58.10
65826;DHT22;52586;-43.152;172.732;2023-02-01T06:00:10;27.60;58.10
65826;DHT22;52586;-43.152;172.732;2023-02-01T06:02:41;27.60;58.20
65826;DHT22;52586;-43.152;172.732;2023-02-01T06:05:12;27.60;58.10
65826;DHT22;52586;-43.152;172.732;2023-02-01T06:07:42;27.60;58.00
65826;DHT22;52586;-43.152;172.732;2023-02-01T06:10:15;27.60;58.00
65826;DHT22;52586;-43.152;172.732;2023-02-01T06:12:46;27.60;58.00
65826;DHT22;52586;-43.152;172.732;2023-02-01T06:15:17;27.60;57.80
65826;DHT22;52586;-43.152;172.732;2023-02-01T06:17:47;27.60;57.90
65826;DHT22;52586;-43.152;172.732;2023-02-01T06:20:18;27.60;57.70
65826;DHT22;52586;-43.152;172.732;2023-02-01T06:22:49;27.60;57.90
65826;DHT22;52586;-43.152;172.732;2023-02-01T06:25:22;27.60;57.90
65826;DHT22;52586;-43.152;172.732;2023-02-01T06:27:52;27.60;57.90
65826;DHT22;52586;-43.152;172.732;2023-02-01T06:30:23;27.60;57.90
65826;DHT22;52586;-43.152;172.732;2023-02-01T06:32:54;27.60;57.90
65826;DHT22;52586;-43.152;172.732;2023-02-01T06:35:25;27.60;57.80
65826;DHT22;52586;-43.152;172.732;2023-02-01T06:37:55;27.60;57.70
65826;DHT22;52586;-43.152;172.732;2023-02-01T06:40:28;27.60;57.70
65826;DHT22;52586;-43.152;172.732;2023-02-01T06:42:58;27.60;57.70
65826;DHT22;52586;-43.152;172.732;2023-02-01T06:45:29;27.60;57.60
65826;DHT22;52586;-43.152;172.732;2023-02-01T06:48:00;27.60;57.70
65826;DHT22;52586;-43.152;172.732;2023-02-01T06:50:31;27.60;57.70
65826;DHT22;52586;-43.152;172.732;2023-02-01T06:53:02;27.60;57.80
65826;DHT22;52586;-43.152;172.732;2023-02-01T06:55:35;27.60;57.80
65826;DHT22;52586;-43.152;172.732;2023-02-01T06:58:06;27.60;57.80
65826;DHT22;52586;-43.152;172.732;2023-02-01T07:00:36;27.60;57.70
65826;DHT22;52586;-43.152;172.732;2023-02-01T07:03:07;27.60;57.70
65826;DHT22;52586;-43.152;172.732;2023-02-01T07:05:38;27.60;57.70
65826;DHT22;52586;-43.152;172.732;2023-02-01T07:08:08;27.60;57.70
65826;DHT22;52586;-43.152;172.732;2023-02-01T07:10:41;27.60;57.60
65826;DHT22;52586;-43.152;172.732;2023-02-01T07:13:11;27.60;57.50
65826;DHT22;52586;-43.152;172.732;2023-02-01T07:15:42;27.60;57.40
65826;DHT22;52586;-43.152;172.732;2023-02-01T07:18:14;27.60;57.40
65826;DHT22;52586;-43.152;172.732;2023-02-01T07:20:50;27.60;57.40
65826;DHT22;52586;-43.152;172.732;2023-02-01T07:23:21;27.60;57.40
65826;DHT22;52586;-43.152;172.732;2023-02-01T07:25:57;27.60;57.30
65826;DHT22;52586;-43.152;172.732;2023-02-01T07:28:30;27.50;57.30
65826;DHT22;52586;-43.152;172.732;2023-02-01T07:31:04;27.50;57.40
65826;DHT22;52586;-43.152;172.732;2023-02-01T07:33:35;27.50;57.30
65826;DHT22;52586;-43.152;172.732;2023-02-01T07:36:07;27.50;57.40
65826;DHT22;52586;-43.152;172.732;2023-02-01T07:38:38;27.50;57.40
65826;DHT22;52586;-43.152;172.732;2023-02-01T07:41:10;27.50;57.40
65826;DHT22;52586;-43.152;172.732;2023-02-01T07:43:41;27.50;57.30
65826;DHT22;52586;-43.152;172.732;2023-02-01T07:46:12;27.50;57.30
65826;DHT22;52586;-43.152;172.732;2023-02-01T07:48:42;27.50;57.30
65826;DHT22;52586;-43.152;172.732;2023-02-01T07:51:14;27.50;57.20
65826;DHT22;52586;-43.152;172.732;2023-02-01T07:53:45;27.50;57.20
65826;DHT22;52586;-43.152;172.732;2023-02-01T07:56:19;27.40;57.10
65826;DHT22;52586;-43.152;172.732;2023-02-01T07:58:53;27.40;57.10
65826;DHT22;52586;-43.152;172.732;2023-02-01T08:01:25;27.40;57.00
65826;DHT22;52586;-43.152;172.732;2023-02-01T08:03:57;27.40;57.00
65826;DHT22;52586;-43.152;172.732;2023-02-01T08:06:29;27.40;57.10
65826;DHT22;52586;-43.152;172.732;2023-02-01T08:09:01;27.40;57.10
65826;DHT22;52586;-43.152;172.732;2023-02-01T08:11:34;27.40;57.10
65826;DHT22;52586;-43.152;172.732;2023-02-01T08:14:06;27.40;57.10
65826;DHT22;52586;-43.152;172.732;2023-02-01T08:16:37;27.40;57.20
65826;DHT22;52586;-43.152;172.732;2023-02-01T08:19:07;27.30;57.10
65826;DHT22;52586;-43.152;172.732;2023-02-01T08:21:38;27.40;57.20
65826;DHT22;52586;-43.152;172.732;2023-02-01T08:24:10;27.30;57.10
65826;DHT22;52586;-43.152;172.732;2023-02-01T08:26:43;27.30;57.10
65826;DHT22;52586;-43.152;172.732;2023-02-01T08:29:14;27.30;57.10
65826;DHT22;52586;-43.152;172.732;2023-02-01T08:31:44;27.30;57.10
65826;DHT22;52586;-43.152;172.732;2023-02-01T08:34:15;27.30;57.00
65826;DHT22;52586;-43.152;172.732;2023-02-01T08:36:46;27.30;57.00
65826;DHT22;52586;-43.152;172.732;2023-02-01T08:39:16;27.30;57.00
65826;DHT22;52586;-43.152;172.732;2023-02-01T08:41:49;27.30;57.00
65826;DHT22;52586;-43.152;172.732;2023-02-01T08:44:32;27.20;56.90
65826;DHT22;52586;-43.152;172.732;2023-02-01T08:47:03;27.20;56.80
65826;DHT22;52586;-43.152;172.732;2023-02-01T08:49:34;27.20;56.80
65826;DHT22;52586;-43.152;172.732;2023-02-01T08:52:04;27.20;56.80
65826;DHT22;52586;-43.152;172.732;2023-02-01T08:54:35;27.10;56.80
65826;DHT22;52586;-43.152;172.732;2023-02-01T08:57:09;27.20;56.80
65826;DHT22;52586;-43.152;172.732;2023-02-01T08:59:39;27.20;56.90
65826;DHT22;52586;-43.152;172.732;2023-02-01T09:02:13;27.10;56.70
65826;DHT22;52586;-43.152;172.732;2023-02-01T09:04:44;27.10;56.80
65826;DHT22;52586;-43.152;172.732;2023-02-01T09:07:15;27.10;56.80
65826;DHT22;52586;-43.152;172.732;2023-02-01T09:09:46;27.10;56.80
65826;DHT22;52586;-43.152;172.732;2023-02-01T09:12:19;27.10;56.70
65826;DHT22;52586;-43.152;172.732;2023-02-01T09:14:49;27.10;56.70
65826;DHT22;52586;-43.152;172.732;2023-02-01T09:17:20;27.00;56.60
65826;DHT22;52586;-43.152;172.732;2023-02-01T09:19:51;27.10;56.60
65826;DHT22;52586;-43.152;172.732;2023-02-01T09:22:22;27.00;56.60
65826;DHT22;52586;-43.152;172.732;2023-02-01T09:24:53;27.00;56.60
65826;DHT22;52586;-43.152;172.732;2023-02-01T09:27:26;27.00;56.60
65826;DHT22;52586;-43.152;172.732;2023-02-01T09:29:56;27.00;56.60
65826;DHT22;52586;-43.152;172.732;2023-02-01T09:32:27;27.00;56.60
65826;DHT22;52586;-43.152;172.732;2023-02-01T09:34:58;27.00;56.60
65826;DHT22;52586;-43.152;172.732;2023-02-01T09:37:28;26.90;56.60
65826;DHT22;52586;-43.152;172.732;2023-02-01T09:39:59;27.00;56.60
65826;DHT22;52586;-43.152;172.732;2023-02-01T09:43:09;26.90;56.60
65826;DHT22;52586;-43.152;172.732;2023-02-01T09:45:53;26.90;56.60
65826;DHT22;52586;-43.152;172.732;2023-02-01T09:48:29;26.90;56.60
65826;DHT22;52586;-43.152;172.732;2023-02-01T09:51:06;26.90;56.60
65826;DHT22;52586;-43.152;172.732;2023-02-01T09:53:43;26.90;56.50
65826;DHT22;52586;-43.152;172.732;2023-02-01T09:56:18;26.80;56.50
65826;DHT22;52586;-43.152;172.732;2023-02-01T09:58:54;26.80;56.50
65826;DHT22;52586;-43.152;172.732;2023-02-01T10:01:27;26.80;56.50
65826;DHT22;52586;-43.152;172.732;2023-02-01T10:04:02;26.80;57.10
65826;DHT22;52586;-43.152;172.732;2023-02-01T10:06:44;26.80;56.50
65826;DHT22;52586;-43.152;172.732;2023-02-01T10:09:30;26.70;56.40
65826;DHT22;52586;-43.152;172.732;2023-02-01T10:12:21;26.70;56.50
65826;DHT22;52586;-43.152;172.732;2023-02-01T10:15:05;26.70;56.50
65826;DHT22;52586;-43.152;172.732;2023-02-01T10:17:56;26.70;56.50
65826;DHT22;52586;-43.152;172.732;2023-02-01T10:20:34;26.70;56.50
65826;DHT22;52586;-43.152;172.732;2023-02-01T10:23:15;26.70;56.60
65826;DHT22;52586;-43.152;172.732;2023-02-01T10:25:54;26.60;56.50
65826;DHT22;52586;-43.152;172.732;2023-02-01T10:28:26;26.60;56.50
65826;DHT22;52586;-43.152;172.732;2023-02-01T10:30:59;26.60;56.50
65826;DHT22;52586;-43.152;172.732;2023-02-01T10:33:34;26.60;56.60
65826;DHT22;52586;-43.152;172.732;2023-02-01T10:36:13;26.60;56.60
65826;DHT22;52586;-43.152;172.732;2023-02-01T10:38:47;26.60;56.60
65826;DHT22;52586;-43.152;172.732;2023-02-01T10:41:19;26.50;56.50
65826;DHT22;52586;-43.152;172.732;2023-02-01T10:43:53;26.50;56.50
65826;DHT22;52586;-43.152;172.732;2023-02-01T10:46:27;26.50;56.50
65826;DHT22;52586;-43.152;172.732;2023-02-01T10:48:59;26.50;57.10
65826;DHT22;52586;-43.152;172.732;2023-02-01T10:51:39;26.50;56.50
65826;DHT22;52586;-43.152;172.732;2023-02-01T10:54:16;26.40;56.50
65826;DHT22;52586;-43.152;172.732;2023-02-01T10:56:49;26.50;56.60
65826;DHT22;52586;-43.152;172.732;2023-02-01T10:59:23;26.50;56.60
65826;DHT22;52586;-43.152;172.732;2023-02-01T11:02:02;26.50;56.60
65826;DHT22;52586;-43.152;172.732;2023-02-01T11:04:35;26.40;56.60
65826;DHT22;52586;-43.152;172.732;2023-02-01T11:07:12;26.40;56.60
65826;DHT22;52586;-43.152;172.732;2023-02-01T11:09:49;26.40;56.60
65826;DHT22;52586;-43.152;172.732;2023-02-01T11:12:27;26.40;56.60
65826;DHT22;52586;-43.152;172.732;2023-02-01T11:15:12;26.40;56.60
65826;DHT22;52586;-43.152;172.732;2023-02-01T11:17:46;26.40;56.60
65826;DHT22;52586;-43.152;172.732;2023-02-01T11:20:21;26.40;56.60
65826;DHT22;52586;-43.152;172.732;2023-02-01T11:23:05;26.40;56.60
65826;DHT22;52586;-43.152;172.732;2023-02-01T11:25:37;26.30;56.50
65826;DHT22;52586;-43.152;172.732;2023-02-01T11:28:09;26.30;56.40
65826;DHT22;52586;-43.152;172.732;2023-02-01T11:30:42;26.30;56.40
65826;DHT22;52586;-43.152;172.732;2023-02-01T11:33:17;26.20;56.40
65826;DHT22;52586;-43.152;172.732;2023-02-01T11:35:49;26.30;56.60
65826;DHT22;52586;-43.152;172.732;2023-02-01T11:38:24;26.30;56.60
65826;DHT22;52586;-43.152;172.732;2023-02-01T11:41:10;26.20;56.60
65826;DHT22;52586;-43.152;172.732;2023-02-01T11:43:53;26.20;56.50
65826;DHT22;52586;-43.152;172.732;2023-02-01T11:46:27;26.20;56.50
65826;DHT22;52586;-43.152;172.732;2023-02-01T11:49:20;26.20;56.50
65826;DHT22;52586;-43.152;172.732;2023-02-01T11:52:06;26.20;56.50
65826;DHT22;52586;-43.152;172.732;2023-02-01T11:54:53;26.20;56.50
65826;DHT22;52586;-43.152;172.732;2023-02-01T11:57:42;26.20;56.40
65826;DHT22;52586;-43.152;172.732;2023-02-01T12:00:34;26.20;56.50
65826;DHT22;52586;-43.152;172.732;2023-02-01T12:03:31;26.20;56.40
65826;DHT22;52586;-43.152;172.732;2023-02-01T12:06:13;26.10;56.30
65826;DHT22;52586;-43.152;172.732;2023-02-01T12:09:10;26.10;56.30
65826;DHT22;52586;-43.152;172.732;2023-02-01T12:11:51;26.10;56.30
65826;DHT22;52586;-43.152;172.732;2023-02-01T12:14:41;26.10;56.30
65826;DHT22;52586;-43.152;172.732;2023-02-01T12:17:32;26.00;56.40
65826;DHT22;52586;-43.152;172.732;2023-02-01T12:20:30;26.00;56.40
65826;DHT22;52586;-43.152;172.732;2023-02-01T12:23:20;26.00;56.40
65826;DHT22;52586;-43.152;172.732;2023-02-01T12:26:08;26.00;56.40
65826;DHT22;52586;-43.152;172.732;2023-02-01T12:31:51;26.00;56.50
65826;DHT22;52586;-43.152;172.732;2023-02-01T12:34:40;26.00;56.50
65826;DHT22;52586;-43.152;172.732;2023-02-01T12:37:23;26.00;56.40
65826;DHT22;52586;-43.152;172.732;2023-02-01T12:40:05;26.00;56.40
65826;DHT22;52586;-43.152;172.732;2023-02-01T12:42:39;26.00;56.40
65826;DHT22;52586;-43.152;172.732;2023-02-01T12:45:15;25.90;56.30
65826;DHT22;52586;-43.152;172.732;2023-02-01T12:47:49;25.90;56.30
65826;DHT22;52586;-43.152;172.732;2023-02-01T12:50:25;25.90;56.30
65826;DHT22;52586;-43.152;172.732;2023-02-01T12:53:07;25.90;56.30
65826;DHT22;52586;-43.152;172.732;2023-02-01T12:55:44;25.80;56.30
65826;DHT22;52586;-43.152;172.732;2023-02-01T12:58:21;25.90;56.40
65826;DHT22;52586;-43.152;172.732;2023-02-01T13:00:57;25.80;56.40
65826;DHT22;52586;-43.152;172.732;2023-02-01T13:03:34;25.80;56.30
65826;DHT22;52586;-43.152;172.732;2023-02-01T13:06:10;25.80;56.40
65826;DHT22;52586;-43.152;172.732;2023-02-01T13:08:47;25.80;56.40
65826;DHT22;52586;-43.152;172.732;2023-02-01T13:11:24;25.80;56.40
65826;DHT22;52586;-43.152;172.732;2023-02-01T13:14:01;25.80;56.40
65826;DHT22;52586;-43.152;172.732;2023-02-01T13:16:35;25.80;56.40
65826;DHT22;52586;-43.152;172.732;2023-02-01T13:19:13;25.80;56.30
65826;DHT22;52586;-43.152;172.732;2023-02-01T13:21:48;25.80;56.40
65826;DHT22;52586;-43.152;172.732;2023-02-01T13:24:30;25.80;56.40
65826;DHT22;52586;-43.152;172.732;2023-02-01T13:27:05;25.70;56.30
65826;DHT22;52586;-43.152;172.732;2023-02-01T13:29:45;25.70;56.30
65826;DHT22;52586;-43.152;172.732;2023-02-01T13:35:51;25.70;56.30
65826;DHT22;52586;-43.152;172.732;2023-02-01T13:38:52;25.60;56.30
65826;DHT22;52586;-43.152;172.732;2023-02-01T13:41:29;25.70;56.40
65826;DHT22;52586;-43.152;172.732;2023-02-01T13:44:05;25.70;56.40
65826;DHT22;52586;-43.152;172.732;2023-02-01T13:46:42;25.60;56.40
65826;DHT22;52586;-43.152;172.732;2023-02-01T13:49:20;25.60;56.40
65826;DHT22;52586;-43.152;172.732;2023-02-01T13:51:53;25.60;56.40
65826;DHT22;52586;-43.152;172.732;2023-02-01T13:54:30;25.60;56.40
65826;DHT22;52586;-43.152;172.732;2023-02-01T13:57:02;25.60;56.30
65826;DHT22;52586;-43.152;172.732;2023-02-01T13:59:53;25.60;56.20
65826;DHT22;52586;-43.152;172.732;2023-02-01T14:02:51;25.50;56.30
65826;DHT22;52586;-43.152;172.732;2023-02-01T14:05:57;25.50;56.30
65826;DHT22;52586;-43.152;172.732;2023-02-01T14:08:44;25.50;56.30
65826;DHT22;52586;-43.152;172.732;2023-02-01T14:11:41;25.50;56.30
65826;DHT22;52586;-43.152;172.732;2023-02-01T14:14:51;25.50;56.30
65826;DHT22;52586;-43.152;172.732;2023-02-01T14:17:42;25.40;56.40
65826;DHT22;52586;-43.152;172.732;2023-02-01T14:20:46;25.50;56.30
65826;DHT22;52586;-43.152;172.732;2023-02-01T14:23:31;25.40;56.30
65826;DHT22;52586;-43.152;172.732;2023-02-01T14:26:19;25.50;56.40
65826;DHT22;52586;-43.152;172.732;2023-02-01T14:28:55;25.40;56.40
65826;DHT22;52586;-43.152;172.732;2023-02-01T14:31:40;25.40;56.40
65826;DHT22;52586;-43.152;172.732;2023-02-01T14:34:15;25.40;56.40
65826;DHT22;52586;-43.152;172.732;2023-02-01T14:36:52;25.40;56.40
65826;DHT22;52586;-43.152;172.732;2023-02-01T14:39:56;25.40;56.40
65826;DHT22;52586;-43.152;172.732;2023-02-01T14:42:30;25.30;56.40
65826;DHT22;52586;-43.152;172.732;2023-02-01T14:48:43;25.30;56.40
65826;DHT22;52586;-43.152;172.732;2023-02-01T14:51:16;25.30;56.40
65826;DHT22;52586;-43.152;172.732;2023-02-01T14:53:47;25.30;56.40
65826;DHT22;52586;-43.152;172.732;2023-02-01T14:56:19;25.30;56.40
65826;DHT22;52586;-43.152;172.732;2023-02-01T14:58:57;25.30;56.40
65826;DHT22;52586;-43.152;172.732;2023-02-01T15:01:32;25.30;56.50
65826;DHT22;52586;-43.152;172.732;2023-02-01T15:04:08;25.30;56.50
65826;DHT22;52586;-43.152;172.732;2023-02-01T15:06:40;25.30;56.50
65826;DHT22;52586;-43.152;172.732;2023-02-01T15:09:14;25.20;56.50
65826;DHT22;52586;-43.152;172.732;2023-02-01T15:12:00;25.20;56.50
65826;DHT22;52586;-43.152;172.732;2023-02-01T15:14:32;25.20;56.40
65826;DHT22;52586;-43.152;172.732;2023-02-01T15:17:15;25.20;56.40
65826;DHT22;52586;-43.152;172.732;2023-02-01T15:19:56;25.20;56.40
65826;DHT22;52586;-43.152;172.732;2023-02-01T15:22:28;25.20;56.40
65826;DHT22;52586;-43.152;172.732;2023-02-01T15:25:00;25.20;56.40
65826;DHT22;52586;-43.152;172.732;2023-02-01T15:27:36;25.20;56.50
65826;DHT22;52586;-43.152;172.732;2023-02-01T15:30:08;25.10;56.40
65826;DHT22;52586;-43.152;172.732;2023-02-01T15:32:40;25.10;56.40
65826;DHT22;52586;-43.152;172.732;2023-02-01T15:35:37;25.10;56.50
65826;DHT22;52586;-43.152;172.732;2023-02-01T15:38:38;25.10;56.50
65826;DHT22;52586;-43.152;172.732;2023-02-01T15:41:11;25.10;56.50
65826;DHT22;52586;-43.152;172.732;2023-02-01T15:43:47;25.10;56.50
65826;DHT22;52586;-43.152;172.732;2023-02-01T15:46:24;25.10;56.50
65826;DHT22;52586;-43.152;172.732;2023-02-01T15:48:59;25.10;56.50
65826;DHT22;52586;-43.152;172.732;2023-02-01T15:51:33;25.10;56.50
65826;DHT22;52586;-43.152;172.732;2023-02-01T15:54:05;25.10;56.50